Time;durP1;ratioP1;P1;durP2;ratioP2;P2;SDS_P1;SDS_P2;PMS_P1;PMS_P2;Temp;Humidity;BMP_temperature;BMP_pressure;BME280_temperature;BME280_humidity;BME280_pressure;Samples;Min_cycle;Max_cycle;Signal;HPM_P1;HPM_P2
2022/10/14 00:01:08;;;;;;;0.10;0.10;;;11.50;99.90;;;;;;5068257;28;20194;-89
2022/10/14 00:03:35;;;;;;;0.20;0.20;;;11.50;99.90;;;;;;5068874;28;20509;-89
2022/10/14 00:06:09;;;;;;;0.20;0.20;;;11.40;99.90;;;;;;5076676;28;20947;-88
2022/10/14 00:08:35;;;;;;;0.20;0.20;;;11.40;99.90;;;;;;5077912;28;20446;-89
2022/10/14 00:11:11;;;;;;;0.20;0.20;;;11.50;99.90;;;;;;5059768;28;20478;-88
2022/10/14 00:13:38;;;;;;;0.20;0.20;;;11.40;99.90;;;;;;5069388;28;20210;-89
2022/10/14 00:16:04;;;;;;;0.20;0.20;;;11.50;99.90;;;;;;5037323;28;20448;-90
2022/10/14 00:18:30;;;;;;;0.10;0.10;;;11.50;99.90;;;;;;5058965;28;20436;-90
2022/10/14 00:20:58;;;;;;;0.20;0.20;;;11.50;99.90;;;;;;5055607;28;20936;-89
2022/10/14 00:23:25;;;;;;;0.20;0.20;;;11.50;99.90;;;;;;5056781;28;20446;-89
2022/10/14 00:25:50;;;;;;;0.10;0.10;;;11.50;99.90;;;;;;5065607;28;20455;-89
2022/10/14 00:28:15;;;;;;;0.10;0.10;;;11.50;99.90;;;;;;5059355;28;20432;-88
2022/10/14 00:30:41;;;;;;;0.20;0.20;;;11.50;99.90;;;;;;5074813;28;20660;-88
2022/10/14 00:33:07;;;;;;;0.20;0.20;;;11.50;99.90;;;;;;5065449;28;20186;-89
2022/10/14 00:35:33;;;;;;;0.20;0.20;;;11.50;99.90;;;;;;5071401;28;20181;-89
2022/10/14 00:37:59;;;;;;;0.10;0.10;;;11.50;99.90;;;;;;5061020;28;20186;-88
2022/10/14 00:40:25;;;;;;;0.10;0.10;;;11.50;99.90;;;;;;5067924;28;20860;-90
2022/10/14 00:42:51;;;;;;;0.10;0.10;;;11.50;99.90;;;;;;5066102;28;20225;-87
2022/10/14 00:45:22;;;;;;;0.20;0.20;;;11.50;99.90;;;;;;5061627;28;20465;-88
2022/10/14 00:47:50;;;;;;;0.10;0.10;;;11.50;99.90;;;;;;5059042;28;20181;-88
2022/10/14 00:50:16;;;;;;;0.20;0.20;;;11.40;99.90;;;;;;5069138;28;20808;-89
2022/10/14 00:52:43;;;;;;;0.20;0.20;;;11.40;99.90;;;;;;5064070;28;20444;-90
2022/10/14 00:55:15;;;;;;;0.20;0.20;;;11.40;99.90;;;;;;5071361;28;20440;-89
2022/10/14 00:57:41;;;;;;;0.20;0.20;;;11.50;99.90;;;;;;5075035;28;20558;-89
2022/10/14 01:00:13;;;;;;;0.10;0.10;;;11.40;99.90;;;;;;5068957;28;20492;-89
2022/10/14 01:02:39;;;;;;;0.10;0.10;;;11.40;99.90;;;;;;5052136;28;20502;-89
2022/10/14 01:05:07;;;;;;;0.20;0.20;;;11.50;99.90;;;;;;5080676;28;20436;-89
2022/10/14 01:07:56;;;;;;;0.10;0.10;;;11.50;99.90;;;;;;5070885;28;20307;-89
2022/10/14 01:10:22;;;;;;;0.20;0.20;;;11.40;99.90;;;;;;5064188;28;20457;-86
2022/10/14 01:13:38;;;;;;;0.20;0.20;;;11.50;99.90;;;;;;5059179;28;20993;-87
2022/10/14 01:16:13;;;;;;;0.10;0.10;;;11.50;99.90;;;;;;5061297;28;20274;-89
2022/10/14 01:18:42;;;;;;;0.10;0.10;;;11.50;99.90;;;;;;5067047;28;20500;-89
2022/10/14 01:21:24;;;;;;;0.20;0.20;;;11.50;99.90;;;;;;5044865;28;20542;-89
2022/10/14 01:24:16;;;;;;;0.10;0.10;;;11.50;99.90;;;;;;5064242;28;20464;-88
2022/10/14 01:26:58;;;;;;;0.20;0.20;;;11.50;99.90;;;;;;5068953;28;20936;-88
2022/10/14 01:29:55;;;;;;;0.10;0.10;;;11.50;99.90;;;;;;5053247;28;20441;-88
2022/10/14 01:32:26;;;;;;;0.10;0.10;;;11.50;99.90;;;;;;5069857;28;20451;-89
2022/10/14 01:35:05;;;;;;;0.10;0.10;;;11.50;99.90;;;;;;5057374;28;20440;-89
2022/10/14 01:37:34;;;;;;;0.10;0.10;;;11.50;99.90;;;;;;5062522;28;21165;-88
2022/10/14 01:40:07;;;;;;;0.20;0.20;;;11.50;99.90;;;;;;5055210;28;20489;-88
2022/10/14 01:42:36;;;;;;;0.20;0.20;;;11.50;99.90;;;;;;5064937;28;20425;-87
2022/10/14 01:45:09;;;;;;;0.17;0.17;;;11.50;99.90;;;;;;5084588;28;20454;-88
2022/10/14 01:47:37;;;;;;;0.20;0.20;;;11.50;99.90;;;;;;5090654;28;20978;-90
2022/10/14 01:50:17;;;;;;;0.10;0.10;;;11.40;99.90;;;;;;5067246;28;20445;-89
2022/10/14 01:52:50;;;;;;;0.10;0.10;;;11.50;99.90;;;;;;5059500;28;20451;-89
2022/10/14 01:55:22;;;;;;;0.20;0.20;;;11.50;99.90;;;;;;5056912;28;20445;-88
2022/10/14 01:57:51;;;;;;;0.20;0.20;;;11.50;99.90;;;;;;5051919;28;20928;-88
2022/10/14 02:00:17;;;;;;;0.10;0.10;;;11.50;99.90;;;;;;5064566;28;20516;-89
2022/10/14 02:02:42;;;;;;;0.20;0.20;;;11.50;99.90;;;;;;5054005;28;20542;-88
2022/10/14 02:05:18;;;;;;;0.20;0.20;;;11.40;99.90;;;;;;5074471;28;20443;-88
2022/10/14 02:07:55;;;;;;;0.10;0.10;;;11.50;99.90;;;;;;5059236;28;20273;-88
2022/10/14 02:10:33;;;;;;;0.10;0.10;;;11.50;99.90;;;;;;5070469;28;20863;-88
2022/10/14 02:13:12;;;;;;;0.10;0.10;;;11.50;99.90;;;;;;5061584;28;20811;-87
2022/10/14 02:15:43;;;;;;;0.10;0.10;;;11.50;99.90;;;;;;5059059;28;20435;-87
2022/10/14 02:18:42;;;;;;;0.10;0.10;;;11.50;99.90;;;;;;5072556;28;20435;-88
2022/10/14 02:21:21;;;;;;;0.10;0.10;;;11.50;99.90;;;;;;5068233;28;20451;-89
2022/10/14 02:24:11;;;;;;;0.10;0.10;;;11.50;99.90;;;;;;5099046;28;20458;-89
2022/10/14 02:26:39;;;;;;;0.10;0.10;;;11.50;99.90;;;;;;5048925;28;20436;-90
2022/10/14 02:29:05;;;;;;;0.10;0.10;;;11.50;99.90;;;;;;5060496;28;20437;-91
2022/10/14 02:31:34;;;;;;;0.10;0.10;;;11.50;99.90;;;;;;5050578;28;20449;-89
2022/10/14 02:34:04;;;;;;;0.10;0.10;;;11.50;99.90;;;;;;5072099;28;20439;-86
2022/10/14 02:36:30;;;;;;;0.20;0.20;;;11.50;99.90;;;;;;5061269;28;20542;-88
2022/10/14 02:38:59;;;;;;;0.20;0.20;;;11.50;99.90;;;;;;5050128;28;20467;-88
2022/10/14 02:41:29;;;;;;;0.10;0.10;;;11.50;99.90;;;;;;5044455;28;20457;-89
2022/10/14 02:43:55;;;;;;;0.20;0.20;;;11.50;99.90;;;;;;5072990;28;20475;-86
2022/10/14 02:46:21;;;;;;;0.20;0.20;;;11.50;99.90;;;;;;5062025;28;20445;-87
2022/10/14 02:48:48;;;;;;;0.20;0.20;;;11.50;99.90;;;;;;5064476;28;20208;-88
2022/10/14 02:51:14;;;;;;;0.20;0.20;;;11.50;99.90;;;;;;5060912;28;20471;-89
2022/10/14 02:53:39;;;;;;;0.20;0.20;;;11.50;99.90;;;;;;5072210;28;21318;-89
2022/10/14 02:56:05;;;;;;;0.20;0.20;;;11.50;99.90;;;;;;5047497;28;20187;-88
2022/10/14 02:58:31;;;;;;;0.20;0.20;;;11.60;99.90;;;;;;5070107;28;20216;-89
2022/10/14 03:00:57;;;;;;;0.10;0.10;;;11.60;99.90;;;;;;5065807;28;20471;-88
2022/10/14 03:03:22;;;;;;;0.20;0.20;;;11.60;99.90;;;;;;5067277;28;20537;-86
2022/10/14 03:05:48;;;;;;;0.10;0.10;;;11.60;99.90;;;;;;5066290;28;20194;-89
2022/10/14 03:08:15;;;;;;;0.20;0.20;;;11.60;99.90;;;;;;5056400;28;20198;-88
2022/10/14 03:10:44;;;;;;;0.10;0.10;;;11.50;99.90;;;;;;5058824;28;20196;-88
2022/10/14 03:13:09;;;;;;;0.10;0.10;;;11.50;99.90;;;;;;5050374;28;20522;-87
2022/10/14 03:15:35;;;;;;;0.10;0.10;;;11.60;99.90;;;;;;5055452;28;20464;-89
2022/10/14 03:18:00;;;;;;;0.10;0.10;;;11.60;99.90;;;;;;5067674;28;20197;-87
2022/10/14 03:20:26;;;;;;;0.20;0.20;;;11.60;99.90;;;;;;5059415;28;20767;-89
2022/10/14 03:22:51;;;;;;;0.10;0.10;;;11.60;99.90;;;;;;5082465;28;20181;-88
2022/10/14 03:25:18;;;;;;;0.10;0.10;;;11.60;99.90;;;;;;5083122;28;20202;-89
2022/10/14 03:27:43;;;;;;;0.10;0.10;;;11.60;99.90;;;;;;5053940;28;20179;-88
2022/10/14 03:30:09;;;;;;;0.10;0.10;;;11.60;99.90;;;;;;5071393;28;20452;-88
2022/10/14 03:32:34;;;;;;;0.10;0.10;;;11.60;99.90;;;;;;5092341;28;20941;-88
2022/10/14 03:35:00;;;;;;;0.10;0.10;;;11.60;99.90;;;;;;5081413;28;20190;-88
2022/10/14 03:37:25;;;;;;;0.10;0.10;;;11.60;99.90;;;;;;5073300;28;20621;-88
2022/10/14 03:39:52;;;;;;;0.10;0.10;;;11.60;99.90;;;;;;5063867;28;20214;-88
2022/10/14 03:42:17;;;;;;;0.10;0.10;;;11.60;99.90;;;;;;5063900;28;20832;-89
2022/10/14 03:44:43;;;;;;;0.10;0.10;;;11.60;99.90;;;;;;5067136;28;20458;-86
2022/10/14 03:47:09;;;;;;;0.20;0.20;;;11.60;99.90;;;;;;5065358;28;20182;-88
2022/10/14 03:49:34;;;;;;;0.20;0.20;;;11.50;99.90;;;;;;5074736;28;20447;-89
2022/10/14 03:52:00;;;;;;;0.20;0.20;;;11.50;99.90;;;;;;5058133;28;20221;-87
2022/10/14 03:54:25;;;;;;;0.10;0.10;;;11.50;99.90;;;;;;5063757;28;20260;-89
2022/10/14 03:56:51;;;;;;;0.20;0.20;;;11.60;99.90;;;;;;5070465;28;20190;-89
2022/10/14 03:59:16;;;;;;;0.10;0.10;;;11.60;99.90;;;;;;5063882;28;20254;-89
2022/10/14 04:01:42;;;;;;;0.30;0.30;;;11.50;99.90;;;;;;5070781;28;20174;-88
2022/10/14 04:04:07;;;;;;;0.20;0.20;;;11.50;99.90;;;;;;5043265;28;20251;-89
2022/10/14 04:06:33;;;;;;;0.20;0.20;;;11.60;99.90;;;;;;5068385;28;20197;-88
2022/10/14 04:08:59;;;;;;;0.10;0.10;;;11.50;99.90;;;;;;5045513;28;20185;-89
2022/10/14 04:11:25;;;;;;;0.20;0.20;;;11.50;99.90;;;;;;5061928;28;20242;-89
2022/10/14 04:13:50;;;;;;;0.20;0.20;;;11.50;99.90;;;;;;5065103;28;20444;-89
2022/10/14 04:16:16;;;;;;;0.10;0.10;;;11.50;99.90;;;;;;5078833;28;20189;-88
2022/10/14 04:18:41;;;;;;;0.10;0.10;;;11.50;99.90;;;;;;5066635;28;20555;-88
2022/10/14 04:21:10;;;;;;;0.10;0.10;;;11.50;99.90;;;;;;5055070;28;22308;-89
2022/10/14 04:23:37;;;;;;;0.10;0.10;;;11.50;99.90;;;;;;5074964;28;20233;-89
2022/10/14 04:26:08;;;;;;;0.10;0.10;;;11.50;99.90;;;;;;5077707;28;20491;-89
2022/10/14 04:28:34;;;;;;;0.10;0.10;;;11.40;99.90;;;;;;5055987;28;21632;-89
2022/10/14 04:31:00;;;;;;;0.10;0.10;;;11.40;99.90;;;;;;5070598;28;20507;-89
2022/10/14 04:33:26;;;;;;;0.10;0.10;;;11.40;99.90;;;;;;5077006;28;20446;-87
2022/10/14 04:35:59;;;;;;;0.10;0.10;;;11.50;99.90;;;;;;5072941;28;20601;-88
2022/10/14 04:38:25;;;;;;;0.10;0.10;;;11.50;99.90;;;;;;5087897;28;20523;-89
2022/10/14 04:40:51;;;;;;;0.20;0.20;;;11.40;99.90;;;;;;5054688;28;21042;-88
2022/10/14 04:43:17;;;;;;;0.30;0.30;;;11.40;99.90;;;;;;5072705;28;20484;-89
2022/10/14 04:45:42;;;;;;;0.10;0.10;;;11.50;99.90;;;;;;5080954;28;20553;-88
2022/10/14 04:48:08;;;;;;;0.20;0.20;;;11.40;99.90;;;;;;5072130;28;20175;-88
2022/10/14 04:50:34;;;;;;;0.10;0.10;;;11.40;99.90;;;;;;5055047;28;20185;-88
2022/10/14 04:52:59;;;;;;;0.10;0.10;;;11.40;99.90;;;;;;5055415;28;20254;-88
2022/10/14 04:55:25;;;;;;;0.10;0.10;;;11.50;99.90;;;;;;5055336;28;20705;-88
2022/10/14 04:57:50;;;;;;;0.20;0.20;;;11.40;99.90;;;;;;5063064;28;20198;-89
2022/10/14 05:00:16;;;;;;;0.20;0.20;;;11.40;99.90;;;;;;5064325;28;20230;-89
2022/10/14 05:02:41;;;;;;;0.10;0.10;;;11.40;99.90;;;;;;5077716;28;20223;-88
2022/10/14 05:05:07;;;;;;;0.10;0.10;;;11.40;99.90;;;;;;5058159;28;20331;-89
2022/10/14 05:07:35;;;;;;;0.10;0.10;;;11.40;99.90;;;;;;5054709;28;20300;-86
2022/10/14 05:10:03;;;;;;;0.10;0.10;;;11.50;99.90;;;;;;5072459;28;20256;-86
2022/10/14 05:12:29;;;;;;;0.10;0.10;;;11.50;99.90;;;;;;5048656;28;20905;-89
2022/10/14 05:14:55;;;;;;;0.20;0.20;;;11.40;99.90;;;;;;5083744;28;20534;-90
2022/10/14 05:17:21;;;;;;;0.10;0.10;;;11.40;99.90;;;;;;5083807;28;20588;-88
2022/10/14 05:19:46;;;;;;;0.20;0.20;;;11.40;99.90;;;;;;5067620;28;20304;-90
2022/10/14 05:22:12;;;;;;;0.20;0.20;;;11.40;99.90;;;;;;5085147;28;20196;-88
2022/10/14 05:24:37;;;;;;;0.10;0.10;;;11.40;99.90;;;;;;5080358;28;20236;-90
2022/10/14 05:27:03;;;;;;;0.10;0.10;;;11.40;99.90;;;;;;5079570;28;20659;-89
2022/10/14 05:29:28;;;;;;;0.10;0.10;;;11.40;99.90;;;;;;5060665;28;20188;-88
2022/10/14 05:31:54;;;;;;;0.10;0.10;;;11.40;99.90;;;;;;5045422;28;20186;-86
2022/10/14 05:34:19;;;;;;;0.20;0.20;;;11.30;99.90;;;;;;5064590;28;20213;-90
2022/10/14 05:36:45;;;;;;;0.10;0.10;;;11.30;99.90;;;;;;5060489;28;20213;-87
2022/10/14 05:39:11;;;;;;;0.10;0.10;;;11.30;99.90;;;;;;5066840;28;20235;-89
2022/10/14 05:41:37;;;;;;;0.10;0.10;;;11.30;99.90;;;;;;5064909;28;20559;-89
2022/10/14 05:44:03;;;;;;;0.20;0.20;;;11.30;99.90;;;;;;5062097;28;20185;-89
2022/10/14 05:46:29;;;;;;;0.20;0.20;;;11.30;99.90;;;;;;5080019;28;20447;-88
2022/10/14 05:48:59;;;;;;;0.10;0.10;;;11.30;99.90;;;;;;5068833;28;20455;-89
2022/10/14 05:51:25;;;;;;;0.10;0.10;;;11.30;99.90;;;;;;5055384;28;20218;-90
2022/10/14 05:53:51;;;;;;;0.20;0.20;;;11.20;99.90;;;;;;5066475;28;20444;-88
2022/10/14 05:56:16;;;;;;;0.10;0.10;;;11.20;99.90;;;;;;5067688;28;20454;-88
2022/10/14 05:58:42;;;;;;;0.10;0.10;;;11.20;99.90;;;;;;5069982;28;20181;-89
2022/10/14 06:01:09;;;;;;;0.20;0.20;;;11.20;99.90;;;;;;5062883;28;20652;-89
2022/10/14 06:03:35;;;;;;;0.10;0.10;;;11.20;99.90;;;;;;5063922;28;20201;-86
2022/10/14 06:06:00;;;;;;;0.10;0.10;;;11.20;99.90;;;;;;5072132;28;20447;-87
2022/10/14 06:08:27;;;;;;;0.10;0.10;;;11.20;99.90;;;;;;5065735;28;20186;-88
2022/10/14 06:10:53;;;;;;;0.10;0.10;;;11.20;99.90;;;;;;5064177;28;20232;-87
2022/10/14 06:13:21;;;;;;;0.20;0.20;;;11.20;99.90;;;;;;5063637;28;20442;-87
2022/10/14 06:15:47;;;;;;;0.20;0.20;;;11.20;99.90;;;;;;5073207;28;20443;-86
2022/10/14 06:18:12;;;;;;;0.20;0.20;;;11.20;99.90;;;;;;5071080;28;21018;-86
2022/10/14 06:20:38;;;;;;;0.10;0.10;;;11.20;99.90;;;;;;5085310;28;20260;-86
2022/10/14 06:23:04;;;;;;;0.10;0.10;;;11.20;99.90;;;;;;5054880;28;20193;-86
2022/10/14 06:25:30;;;;;;;0.10;0.10;;;11.20;99.90;;;;;;5062626;28;20265;-87
2022/10/14 06:28:02;;;;;;;0.10;0.10;;;11.20;99.90;;;;;;5065138;28;20190;-86
2022/10/14 06:30:27;;;;;;;0.20;0.20;;;11.20;99.90;;;;;;5053333;28;20487;-87
2022/10/14 06:32:53;;;;;;;0.10;0.10;;;11.30;99.90;;;;;;5081928;28;20443;-90
2022/10/14 06:35:19;;;;;;;0.20;0.20;;;11.30;99.90;;;;;;5066341;28;20178;-85
2022/10/14 06:37:45;;;;;;;0.20;0.20;;;11.30;99.90;;;;;;5049287;28;20189;-86
2022/10/14 06:40:11;;;;;;;0.10;0.10;;;11.30;99.90;;;;;;5063327;28;20495;-85
2022/10/14 06:42:37;;;;;;;0.10;0.10;;;11.30;99.90;;;;;;5043261;28;20530;-85
2022/10/14 06:45:04;;;;;;;0.20;0.20;;;11.30;99.90;;;;;;5047565;28;20189;-84
2022/10/14 06:47:31;;;;;;;0.10;0.10;;;11.30;99.90;;;;;;5066050;28;20541;-87
2022/10/14 06:49:56;;;;;;;0.10;0.10;;;11.30;99.90;;;;;;5090596;28;20420;-88
2022/10/14 06:52:22;;;;;;;0.10;0.10;;;11.40;99.90;;;;;;5081632;28;20522;-87
2022/10/14 06:54:47;;;;;;;0.10;0.10;;;11.40;99.90;;;;;;5057674;28;20201;-86
2022/10/14 06:57:13;;;;;;;0.17;0.17;;;11.40;99.90;;;;;;5059665;28;20255;-85
2022/10/14 06:59:38;;;;;;;0.10;0.10;;;11.40;99.90;;;;;;5080180;28;20216;-86
2022/10/14 07:02:04;;;;;;;0.20;0.20;;;11.40;99.90;;;;;;5062530;28;20560;-86
2022/10/14 07:04:29;;;;;;;0.10;0.10;;;11.40;99.90;;;;;;5054032;28;20185;-87
2022/10/14 07:06:57;;;;;;;0.17;0.17;;;11.40;99.90;;;;;;5083160;28;20247;-86
2022/10/14 07:09:23;;;;;;;0.20;0.20;;;11.40;99.90;;;;;;5066425;28;20202;-88
2022/10/14 07:11:49;;;;;;;0.10;0.10;;;11.40;99.90;;;;;;5067821;28;20471;-85
2022/10/14 07:14:14;;;;;;;0.10;0.10;;;11.50;99.90;;;;;;5061296;28;20453;-86
2022/10/14 07:16:42;;;;;;;0.20;0.20;;;11.50;99.90;;;;;;5067497;28;20206;-87
2022/10/14 07:19:08;;;;;;;0.20;0.20;;;11.50;99.90;;;;;;5056918;28;20718;-86
2022/10/14 07:21:34;;;;;;;0.20;0.20;;;11.50;99.90;;;;;;5084321;28;20448;-86
2022/10/14 07:23:59;;;;;;;0.20;0.20;;;11.50;99.90;;;;;;5070103;28;20231;-86
2022/10/14 07:26:25;;;;;;;0.20;0.20;;;11.60;99.90;;;;;;5081366;28;21077;-86
2022/10/14 07:28:50;;;;;;;0.20;0.20;;;11.60;99.90;;;;;;5087625;28;20189;-88
2022/10/14 07:31:16;;;;;;;0.10;0.10;;;11.60;99.90;;;;;;5084243;28;20575;-87
2022/10/14 07:33:42;;;;;;;0.20;0.20;;;11.60;99.90;;;;;;5087039;28;20228;-87
2022/10/14 07:36:11;;;;;;;0.20;0.20;;;11.60;99.90;;;;;;5059293;28;20187;-86
2022/10/14 07:38:37;;;;;;;0.20;0.20;;;11.60;99.90;;;;;;5072844;28;20194;-86
2022/10/14 07:41:15;;;;;;;0.20;0.20;;;11.70;99.90;;;;;;5087707;28;20454;-87
2022/10/14 07:43:42;;;;;;;0.10;0.10;;;11.70;99.90;;;;;;5079676;28;20533;-86
2022/10/14 07:46:07;;;;;;;0.20;0.20;;;11.70;99.90;;;;;;5074343;28;21208;-88
2022/10/14 07:48:33;;;;;;;0.10;0.10;;;11.70;99.90;;;;;;5059319;28;20476;-84
2022/10/14 07:50:59;;;;;;;0.10;0.10;;;11.70;99.90;;;;;;5069858;28;20205;-84
2022/10/14 07:53:25;;;;;;;0.20;0.20;;;11.80;99.90;;;;;;5079951;28;20474;-85
2022/10/14 07:55:51;;;;;;;0.20;0.20;;;11.80;99.90;;;;;;5084075;28;20257;-85
2022/10/14 07:58:19;;;;;;;0.10;0.10;;;11.80;99.90;;;;;;5075988;28;20440;-87
2022/10/14 08:00:45;;;;;;;0.20;0.20;;;11.80;99.90;;;;;;5080459;28;20534;-87
2022/10/14 08:03:10;;;;;;;0.20;0.20;;;11.80;99.90;;;;;;5091236;28;20900;-85
2022/10/14 08:05:36;;;;;;;0.20;0.20;;;11.80;99.90;;;;;;5062401;28;20181;-85
2022/10/14 08:08:02;;;;;;;0.10;0.10;;;11.90;99.90;;;;;;5088574;28;20212;-86
2022/10/14 08:10:27;;;;;;;0.20;0.20;;;12.00;99.90;;;;;;5074573;28;20208;-86
2022/10/14 08:12:53;;;;;;;0.20;0.20;;;12.10;99.90;;;;;;5074086;28;20312;-85
2022/10/14 08:15:18;;;;;;;0.20;0.20;;;12.10;99.90;;;;;;5078346;28;20181;-86
2022/10/14 08:17:44;;;;;;;0.10;0.10;;;12.10;99.90;;;;;;5088330;28;20181;-84
2022/10/14 08:20:09;;;;;;;0.10;0.10;;;12.20;99.90;;;;;;5090119;28;20208;-85
2022/10/14 08:22:35;;;;;;;0.10;0.10;;;12.20;99.90;;;;;;5070143;28;20198;-85
2022/10/14 08:25:01;;;;;;;0.10;0.10;;;12.20;99.90;;;;;;5052830;28;20175;-87
2022/10/14 08:27:26;;;;;;;0.10;0.10;;;12.20;99.90;;;;;;5052292;28;20315;-87
2022/10/14 08:29:53;;;;;;;0.10;0.10;;;12.20;99.90;;;;;;5053041;28;20205;-86
2022/10/14 08:32:18;;;;;;;0.20;0.20;;;12.30;99.90;;;;;;5089578;28;20187;-87
2022/10/14 08:34:44;;;;;;;0.20;0.20;;;12.40;99.90;;;;;;5084032;28;20458;-87
2022/10/14 08:37:10;;;;;;;0.20;0.20;;;12.40;99.90;;;;;;5083277;28;20189;-87
2022/10/14 08:39:36;;;;;;;0.10;0.10;;;12.50;99.90;;;;;;5053276;28;20228;-87
2022/10/14 08:42:29;;;;;;;0.20;0.20;;;12.50;99.90;;;;;;5062334;28;20935;-86
2022/10/14 08:45:00;;;;;;;0.10;0.10;;;12.50;99.90;;;;;;5071277;28;20590;-84
2022/10/14 08:47:38;;;;;;;0.10;0.10;;;12.50;99.90;;;;;;5063171;28;20448;-86
2022/10/14 08:50:29;;;;;;;0.10;0.10;;;12.50;99.90;;;;;;5067557;28;20526;-85
2022/10/14 08:52:59;;;;;;;0.20;0.20;;;12.60;99.90;;;;;;5070438;28;20424;-87
2022/10/14 08:55:59;;;;;;;0.10;0.10;;;12.70;99.90;;;;;;5042258;28;20958;-84
2022/10/14 08:58:37;;;;;;;0.10;0.10;;;12.80;99.90;;;;;;5064371;28;20456;-83
2022/10/14 09:01:25;;;;;;;0.10;0.10;;;12.80;99.90;;;;;;5092629;28;20457;-84
2022/10/14 09:03:56;;;;;;;0.20;0.20;;;12.80;99.90;;;;;;5068610;28;20436;-85
2022/10/14 09:06:32;;;;;;;0.10;0.10;;;12.90;99.90;;;;;;5059917;28;20532;-86
2022/10/14 09:09:03;;;;;;;0.10;0.10;;;12.90;99.90;;;;;;5074898;28;20431;-86
2022/10/14 09:11:35;;;;;;;0.20;0.20;;;13.00;99.90;;;;;;5064135;28;20523;-86
2022/10/14 09:14:04;;;;;;;0.10;0.10;;;13.10;99.90;;;;;;5055776;28;20442;-85
2022/10/14 09:16:34;;;;;;;0.10;0.10;;;13.10;99.90;;;;;;5072803;28;20600;-86
2022/10/14 09:19:52;;;;;;;0.10;0.10;;;13.00;99.90;;;;;;5041827;28;20514;-86
2022/10/14 09:22:18;;;;;;;0.10;0.10;;;13.00;99.90;;;;;;5041431;28;20453;-86
2022/10/14 09:24:47;;;;;;;0.10;0.10;;;13.00;99.90;;;;;;5072901;28;20453;-85
2022/10/14 09:27:22;;;;;;;0.10;0.10;;;12.90;99.90;;;;;;5088336;28;20641;-86
2022/10/14 09:29:58;;;;;;;0.10;0.10;;;12.90;99.90;;;;;;5071721;28;20470;-85
2022/10/14 09:32:45;;;;;;;0.10;0.10;;;13.00;99.90;;;;;;5090463;28;20451;-84
2022/10/14 09:35:25;;;;;;;0.10;0.10;;;13.20;99.90;;;;;;5076411;28;20439;-86
2022/10/14 09:37:51;;;;;;;0.10;0.10;;;13.20;99.90;;;;;;5068705;28;20450;-85
2022/10/14 09:40:36;;;;;;;0.10;0.10;;;13.20;99.90;;;;;;5069711;28;20482;-86
2022/10/14 09:43:07;;;;;;;0.10;0.10;;;13.20;99.90;;;;;;5080601;28;20432;-84
2022/10/14 09:46:06;;;;;;;0.10;0.10;;;13.20;99.90;;;;;;5069476;28;20451;-85
2022/10/14 09:48:43;;;;;;;0.10;0.10;;;13.40;99.90;;;;;;5067602;28;20439;-87
2022/10/14 09:51:17;;;;;;;0.20;0.20;;;13.40;99.90;;;;;;5069767;28;20989;-86
2022/10/14 09:53:50;;;;;;;0.10;0.10;;;13.40;99.90;;;;;;5059972;28;21007;-86
2022/10/14 09:56:39;;;;;;;0.10;0.10;;;13.40;99.90;;;;;;5074063;28;20452;-86
2022/10/14 09:59:16;;;;;;;0.10;0.10;;;13.40;99.90;;;;;;5062120;28;20520;-86
2022/10/14 10:01:49;;;;;;;0.10;0.10;;;13.30;99.90;;;;;;5062939;28;20455;-86
2022/10/14 10:04:30;;;;;;;0.10;0.10;;;13.30;99.90;;;;;;5080860;28;21183;-85
2022/10/14 10:06:57;;;;;;;0.10;0.10;;;13.20;99.90;;;;;;5071716;28;20449;-85
2022/10/14 10:09:25;;;;;;;0.10;0.10;;;13.10;99.90;;;;;;5063426;28;20503;-85
2022/10/14 10:11:51;;;;;;;0.10;0.10;;;13.20;99.90;;;;;;5085889;28;20490;-85
2022/10/14 10:14:24;;;;;;;0.10;0.10;;;13.20;99.90;;;;;;5070805;28;20434;-86
2022/10/14 10:17:12;;;;;;;0.10;0.10;;;13.20;99.90;;;;;;5078819;28;20258;-85
2022/10/14 10:19:43;;;;;;;0.10;0.10;;;13.20;99.90;;;;;;5068120;28;20483;-86
2022/10/14 10:22:28;;;;;;;0.10;0.10;;;13.30;99.90;;;;;;5065885;28;20432;-85
2022/10/14 10:24:59;;;;;;;0.10;0.10;;;13.40;99.90;;;;;;5067423;28;20441;-85
2022/10/14 10:27:33;;;;;;;0.10;0.10;;;13.50;99.90;;;;;;5081736;28;20444;-85
2022/10/14 10:30:13;;;;;;;0.10;0.10;;;13.60;99.90;;;;;;5076298;28;20447;-86
2022/10/14 10:32:51;;;;;;;0.10;0.10;;;13.70;99.90;;;;;;5080744;28;20442;-86
2022/10/14 10:35:51;;;;;;;0.10;0.10;;;13.90;99.90;;;;;;5061282;28;20439;-88
2022/10/14 10:38:37;;;;;;;0.10;0.10;;;13.90;99.90;;;;;;5090127;28;20427;-87
2022/10/14 10:41:14;;;;;;;0.10;0.10;;;13.90;99.90;;;;;;5067303;28;20487;-86
2022/10/14 10:43:56;;;;;;;0.10;0.10;;;13.80;99.90;;;;;;5063716;28;20530;-88
2022/10/14 10:46:40;;;;;;;0.10;0.10;;;13.70;99.90;;;;;;5064641;28;20952;-89
2022/10/14 10:49:37;;;;;;;0.10;0.10;;;13.80;99.90;;;;;;5062150;28;20983;-94
2022/10/14 10:52:21;;;;;;;0.10;0.10;;;13.80;99.90;;;;;;5057890;28;20630;-93
2022/10/14 10:54:57;;;;;;;0.10;0.10;;;13.80;99.90;;;;;;5061832;28;20482;-87
2022/10/14 10:57:51;;;;;;;0.10;0.10;;;13.70;99.90;;;;;;5070888;28;20439;-93
2022/10/14 11:00:22;;;;;;;0.10;0.10;;;13.60;99.90;;;;;;5052538;28;20987;-94
2022/10/14 11:03:29;;;;;;;0.10;0.10;;;13.60;99.90;;;;;;5080956;28;21130;-92
2022/10/14 11:06:03;;;;;;;0.10;0.10;;;13.50;99.90;;;;;;5033188;28;20479;-92
2022/10/14 11:12:02;;;;;;;0.10;0.10;;;13.70;99.90;;;;;;5069798;28;20602;-93
2022/10/14 11:14:55;;;;;;;0.10;0.10;;;13.70;99.90;;;;;;5043536;28;20611;-93
2022/10/14 11:17:34;;;;;;;0.10;0.10;;;13.80;99.90;;;;;;5050292;28;20829;-91
2022/10/14 11:20:35;;;;;;;0.10;0.10;;;13.90;99.90;;;;;;5047823;28;20508;-94
2022/10/14 11:23:15;;;;;;;0.10;0.10;;;13.80;99.90;;;;;;5077755;28;20435;-92
2022/10/14 11:26:07;;;;;;;0.10;0.10;;;13.90;99.90;;;;;;5076316;28;20416;-92
2022/10/14 11:28:58;;;;;;;0.10;0.10;;;14.00;99.90;;;;;;5067375;28;20487;-91
2022/10/14 11:31:26;;;;;;;0.10;0.10;;;14.10;99.90;;;;;;5050616;28;20461;-91
2022/10/14 11:34:19;;;;;;;0.10;0.10;;;14.30;99.90;;;;;;5061895;28;20432;-92
2022/10/14 11:37:18;;;;;;;0.10;0.10;;;14.20;99.90;;;;;;5059415;28;20444;-93
2022/10/14 11:40:03;;;;;;;0.10;0.10;;;14.10;99.90;;;;;;5062759;28;21134;-93
2022/10/14 11:42:39;;;;;;;0.10;0.10;;;14.10;99.90;;;;;;5063193;28;20443;-93
2022/10/14 11:45:43;;;;;;;0.10;0.10;;;14.10;99.90;;;;;;5076794;28;20431;-94
2022/10/14 11:48:26;;;;;;;0.10;0.10;;;14.00;99.90;;;;;;5085594;28;20450;-91
2022/10/14 11:51:04;;;;;;;0.10;0.10;;;13.90;99.90;;;;;;5071910;28;20437;-92
2022/10/14 11:53:47;;;;;;;0.10;0.10;;;13.90;99.90;;;;;;5072545;28;20533;-91
2022/10/14 11:56:33;;;;;;;0.10;0.10;;;13.80;99.90;;;;;;5059892;28;20475;-90
2022/10/14 11:59:21;;;;;;;0.10;0.10;;;13.90;99.90;;;;;;5069253;28;20454;-91
2022/10/14 12:01:51;;;;;;;0.10;0.10;;;13.90;99.90;;;;;;5061497;28;20440;-90
2022/10/14 12:04:26;;;;;;;0.10;0.10;;;13.90;99.90;;;;;;5067216;28;20441;-94
2022/10/14 12:06:59;;;;;;;0.10;0.10;;;13.90;99.90;;;;;;5067047;28;20448;-94
2022/10/14 12:09:52;;;;;;;0.10;0.10;;;13.90;99.90;;;;;;5075402;28;20437;-93
2022/10/14 12:12:21;;;;;;;0.10;0.10;;;13.90;99.90;;;;;;5074457;28;20480;-92
2022/10/14 12:14:56;;;;;;;0.10;0.10;;;13.90;99.90;;;;;;5067264;28;20483;-92
2022/10/14 12:17:43;;;;;;;0.10;0.10;;;13.90;99.90;;;;;;5083564;28;20802;-94
2022/10/14 12:20:25;;;;;;;0.10;0.10;;;14.10;99.90;;;;;;5078824;28;20487;-91
2022/10/14 12:22:52;;;;;;;0.10;0.10;;;14.30;99.90;;;;;;5066898;28;20938;-92
2022/10/14 12:25:22;;;;;;;0.10;0.10;;;14.40;99.90;;;;;;5075236;28;20458;-96
2022/10/14 12:27:49;;;;;;;0.10;0.10;;;14.50;99.90;;;;;;5075138;28;20949;-93
2022/10/14 12:30:33;;;;;;;0.10;0.10;;;14.60;99.90;;;;;;5063603;28;20549;-94
2022/10/14 12:33:10;;;;;;;0.10;0.10;;;14.60;99.90;;;;;;5063802;28;20551;-94
2022/10/14 12:35:58;;;;;;;0.10;0.10;;;14.70;99.90;;;;;;5085036;28;20444;-92
2022/10/14 12:38:29;;;;;;;0.10;0.10;;;16.10;99.90;;;;;;5074053;28;20432;-92
2022/10/14 12:41:17;;;;;;;0.10;0.10;;;16.50;99.90;;;;;;5072309;28;20484;-93
2022/10/14 12:44:01;;;;;;;0.10;0.10;;;17.60;99.90;;;;;;5070390;28;20447;-92
2022/10/14 12:46:27;;;;;;;0.10;0.00;;;17.80;99.90;;;;;;5063355;28;20455;-93
2022/10/14 12:48:53;;;;;;;0.10;0.00;;;17.70;99.90;;;;;;5047202;28;20435;-92
2022/10/14 12:51:23;;;;;;;0.10;0.10;;;17.30;99.90;;;;;;5056363;28;20190;-91
2022/10/14 12:53:53;;;;;;;0.10;0.10;;;16.30;99.90;;;;;;5053264;28;20969;-92
2022/10/14 12:56:35;;;;;;;0.10;0.10;;;15.90;99.90;;;;;;5052310;28;20479;-92
2022/10/14 12:59:04;;;;;;;0.10;0.10;;;15.60;99.90;;;;;;5060832;28;20538;-95
2022/10/14 13:01:30;;;;;;;0.10;0.10;;;15.50;99.90;;;;;;5077913;28;20445;-94
2022/10/14 13:04:16;;;;;;;0.10;0.10;;;15.20;99.90;;;;;;5075132;28;20999;-95
2022/10/14 13:06:42;;;;;;;0.10;0.10;;;15.10;99.90;;;;;;5079341;28;20504;-94
2022/10/14 13:09:10;;;;;;;0.10;0.10;;;15.00;99.90;;;;;;5068593;28;20954;-96
2022/10/14 13:11:37;;;;;;;0.10;0.10;;;15.10;99.90;;;;;;5059877;28;20217;-94
2022/10/14 13:14:28;;;;;;;0.10;0.10;;;15.20;99.90;;;;;;5059801;28;20503;-95